TOA weather

Zamperini Field
Torrance, California, United States

Public forecast

Using degrees Fahrenheit for public forecast. Weather courtesy of forecast.io.

Current aviation weather report (METAR) for Zamperini Field

Report is more than 6 hours old.

Retrieved 2020/06/06 15:47 UTC (7 hours ago):

KTOA 061547Z 24007KT 10SM SCT023 BKN050 18/14 A2995

Closest aviation forecast (TAF) to Zamperini Field

Closest forecast is Los Angeles International Airport, 9.0 nm (16.7 km) NNW. Retrieved 2020/06/06 18:45 UTC (4 hours ago):

TAF KLAX 061742Z 0618/0724 26008KT P6SM BKN015 FM062000 26015KT P6SM FEW040 FM070400 26010KT P6SM SKC FM070900 26005KT P6SM SKC FM072100 26014KT P6SM SKC